Time;durP1;ratioP1;P1;durP2;ratioP2;P2;SDS_P1;SDS_P2;PMS_P1;PMS_P2;Temp;Humidity;BMP_temperature;BMP_pressure;BME280_temperature;BME280_humidity;BME280_pressure;Samples;Min_cycle;Max_cycle;Signal;HPM_P1;HPM_P2
2022/06/21 00:01:27;;;;;;;10.05;6.25;;;16.60;99.90;;;16.97;70.53;101652.41;5116041;28;20423;-60
2022/06/21 00:03:56;;;;;;;12.30;6.53;;;16.60;99.90;;;16.84;70.58;101652.66;5115815;28;20382;-60
2022/06/21 00:06:27;;;;;;;11.52;6.45;;;16.40;99.90;;;16.67;71.34;101646.69;5115843;28;20050;-61
2022/06/21 00:08:57;;;;;;;7.85;5.95;;;16.20;99.90;;;16.66;72.60;101644.94;5116339;28;20090;-60
2022/06/21 00:11:29;;;;;;;5.53;4.95;;;16.20;99.90;;;16.69;72.76;101653.78;5115917;28;20043;-60
2022/06/21 00:13:57;;;;;;;4.97;4.38;;;16.20;99.90;;;16.33;73.13;101643.66;5115525;28;20044;-60
2022/06/21 00:16:29;;;;;;;8.40;6.43;;;15.90;99.90;;;16.26;74.52;101648.19;5115576;28;20114;-60
2022/06/21 00:18:58;;;;;;;6.65;5.05;;;15.70;99.90;;;16.30;74.91;101646.38;5115819;28;20051;-60
2022/06/21 00:21:33;;;;;;;6.57;5.30;;;15.80;99.90;;;16.16;73.91;101632.38;5115356;28;20131;-60
2022/06/21 00:24:04;;;;;;;5.60;5.03;;;15.80;99.90;;;16.09;73.17;101642.25;5115944;28;20143;-60
2022/06/21 00:26:32;;;;;;;8.75;6.68;;;15.70;99.90;;;16.10;73.08;101635.97;5115944;28;20419;-60
2022/06/21 00:29:01;;;;;;;9.50;6.05;;;15.70;99.90;;;16.11;73.45;101629.75;5115221;28;20118;-60
2022/06/21 00:31:33;;;;;;;18.13;5.38;;;15.60;99.90;;;16.18;74.53;101627.88;5115437;28;20503;-60
2022/06/21 00:34:08;;;;;;;5.75;5.18;;;15.70;99.90;;;16.15;75.85;101625.25;5115205;28;20074;-60
2022/06/21 00:36:38;;;;;;;7.53;5.05;;;15.60;99.90;;;16.11;75.23;101629.75;5115228;28;20043;-60
2022/06/21 00:39:10;;;;;;;7.78;5.63;;;15.70;99.90;;;16.08;74.14;101643.16;5115699;28;20130;-60
2022/06/21 00:41:43;;;;;;;6.68;5.22;;;15.60;99.90;;;16.01;75.19;101621.88;5097918;28;20068;-60
2022/06/21 00:44:19;;;;;;;6.70;5.97;;;15.50;99.90;;;16.11;75.32;101644.88;5115374;28;20059;-60
2022/06/21 00:46:53;;;;;;;6.70;5.88;;;15.60;99.90;;;16.18;75.58;101614.53;5096890;28;20044;-60
2022/06/21 00:49:26;;;;;;;8.52;6.20;;;15.70;99.90;;;16.17;75.57;101612.75;5115275;28;20104;-60
2022/06/21 00:52:01;;;;;;;8.23;6.50;;;15.70;99.90;;;16.29;75.22;101607.25;5096755;28;20047;-60
2022/06/21 00:54:51;;;;;;;9.13;6.22;;;15.80;99.90;;;16.30;74.93;101608.97;5114851;28;20397;-61
2022/06/21 00:57:25;;;;;;;7.47;5.47;;;15.80;99.90;;;16.12;74.73;101559.44;5115329;28;20092;-60
2022/06/21 00:59:53;;;;;;;7.28;6.25;;;15.90;99.90;;;16.37;74.68;101600.00;5115016;28;20039;-61
2022/06/21 01:02:27;;;;;;;10.95;6.55;;;15.90;99.90;;;16.22;74.01;101590.41;5114826;28;20047;-60
2022/06/21 01:04:58;;;;;;;8.48;6.45;;;15.90;99.90;;;16.20;73.38;101591.38;5114868;28;20152;-60
2022/06/21 01:07:27;;;;;;;7.68;5.72;;;15.80;99.90;;;16.21;73.71;101593.13;5114915;28;20085;-60
2022/06/21 01:10:04;;;;;;;7.47;6.10;;;15.80;99.90;;;16.09;74.33;101569.28;5114473;28;20117;-60
2022/06/21 01:12:39;;;;;;;8.55;6.28;;;15.70;99.90;;;16.08;73.75;101586.22;5114274;28;20100;-60
2022/06/21 01:15:13;;;;;;;6.68;6.07;;;15.70;99.90;;;16.01;73.33;101587.19;5114423;28;20462;-60
2022/06/21 01:17:42;;;;;;;7.47;5.63;;;15.60;99.90;;;15.99;73.02;101587.22;5114938;28;20040;-61
2022/06/21 01:20:16;;;;;;;5.43;4.65;;;15.50;99.90;;;15.88;72.49;101590.97;5096052;28;20062;-60
2022/06/21 01:22:52;;;;;;;5.97;4.68;;;15.40;99.90;;;15.89;72.95;101585.59;5114148;28;20108;-60
2022/06/21 01:25:40;;;;;;;9.52;4.70;;;15.40;99.90;;;15.62;73.97;101555.78;5114483;28;20040;-60
2022/06/21 01:28:11;;;;;;;6.32;4.50;;;15.40;99.90;;;15.79;74.01;101588.44;5114823;28;20040;-61
2022/06/21 01:30:43;;;;;;;6.32;5.03;;;15.40;99.90;;;15.78;73.75;101594.66;5114467;28;20067;-61
2022/06/21 01:33:14;;;;;;;62.30;7.05;;;15.30;99.90;;;15.78;74.53;101589.31;5114203;28;20047;-60
2022/06/21 01:35:48;;;;;;;5.45;4.40;;;15.30;99.90;;;15.88;74.99;101590.97;5114403;28;20074;-60
2022/06/21 01:38:22;;;;;;;6.07;5.20;;;15.40;99.90;;;15.89;75.17;101598.94;5114107;28;20048;-61
2022/06/21 01:40:56;;;;;;;10.38;5.07;;;15.40;99.90;;;15.92;74.48;101604.25;5114000;28;20055;-61
2022/06/21 01:43:30;;;;;;;5.03;4.55;;;15.40;99.90;;;15.88;74.00;101594.53;5113859;28;20039;-60
2022/06/21 01:46:01;;;;;;;10.10;4.90;;;15.40;99.90;;;15.92;74.90;101590.00;5095876;28;20096;-61
2022/06/21 01:48:35;;;;;;;6.20;5.40;;;15.40;99.90;;;15.97;75.08;101585.47;5113792;28;20097;-60
2022/06/21 01:51:08;;;;;;;5.72;4.70;;;15.50;99.90;;;15.91;74.75;101582.94;5113765;28;20047;-61
2022/06/21 01:53:38;;;;;;;7.18;5.35;;;15.50;99.90;;;15.87;74.85;101586.53;5113985;28;20510;-61
2022/06/21 01:56:13;;;;;;;6.60;5.03;;;15.40;99.90;;;15.79;74.43;101578.66;5113899;28;20393;-60
2022/06/21 01:58:51;;;;;;;13.57;6.68;;;15.40;99.90;;;15.84;74.10;101598.13;5114157;28;20112;-60
2022/06/21 02:01:26;;;;;;;12.43;7.07;;;15.40;99.90;;;15.88;74.07;101598.97;5113563;28;20078;-60
2022/06/21 02:03:57;;;;;;;9.10;6.32;;;15.40;99.90;;;15.84;74.10;101587.47;5113751;28;20101;-58
2022/06/21 02:06:31;;;;;;;10.95;5.60;;;15.50;99.90;;;16.12;74.66;101593.28;5113943;28;20058;-58
2022/06/21 02:09:06;;;;;;;7.90;5.80;;;15.60;99.90;;;16.00;74.85;101596.13;5113864;28;20112;-58
2022/06/21 02:11:41;;;;;;;6.72;5.70;;;15.60;99.90;;;16.00;74.82;101601.47;5113958;28;20097;-58
2022/06/21 02:14:29;;;;;;;8.80;6.40;;;15.50;99.90;;;15.92;74.54;101592.69;5114118;28;20052;-58
2022/06/21 02:17:09;;;;;;;8.25;6.30;;;15.50;99.90;;;16.01;74.58;101589.88;5113795;28;20059;-58
2022/06/21 02:19:44;;;;;;;6.22;5.28;;;15.50;99.90;;;15.76;74.96;101546.66;5094885;28;20088;-58
2022/06/21 02:22:16;;;;;;;10.45;6.72;;;15.50;99.90;;;15.82;74.91;101572.38;5113110;28;20101;-58
2022/06/21 02:24:45;;;;;;;12.90;7.00;;;15.50;99.90;;;15.88;74.69;101558.94;5113387;28;20039;-58
2022/06/21 02:27:17;;;;;;;13.88;7.18;;;15.50;99.90;;;15.96;74.47;101562.38;5113047;28;20386;-58
2022/06/21 02:29:51;;;;;;;11.80;6.88;;;15.50;99.90;;;16.04;73.87;101550.69;5113129;28;20100;-58
2022/06/21 02:32:27;;;;;;;16.75;7.70;;;15.60;99.90;;;16.10;73.82;101539.03;5112896;28;20048;-58
2022/06/21 02:35:04;;;;;;;19.98;8.57;;;15.70;99.90;;;16.19;73.85;101531.75;5112867;28;20050;-58
2022/06/21 02:37:34;;;;;;;16.65;7.40;;;15.80;99.90;;;16.20;73.78;101521.97;5094656;28;20138;-58
2022/06/21 02:40:08;;;;;;;18.38;7.75;;;15.80;99.90;;;16.27;73.56;101513.81;5112933;28;20413;-58
2022/06/21 02:42:40;;;;;;;12.50;7.20;;;15.90;99.90;;;16.32;73.36;101521.72;5113136;28;20075;-58
2022/06/21 02:45:24;;;;;;;13.18;7.40;;;15.90;99.90;;;16.41;73.40;101520.69;5112555;28;20040;-58
2022/06/21 02:48:02;;;;;;;20.27;8.00;;;16.00;99.90;;;16.41;73.05;101516.25;5112475;28;20044;-59
2022/06/21 02:50:37;;;;;;;14.20;7.03;;;16.00;99.90;;;16.51;73.05;101507.16;5112459;28;20120;-58
2022/06/21 02:53:15;;;;;;;16.23;6.78;;;16.10;99.90;;;16.58;72.84;101513.28;5112444;28;20039;-58
2022/06/21 02:55:49;;;;;;;19.33;7.25;;;16.20;99.90;;;16.55;72.58;101516.03;5112863;28;20078;-58
2022/06/21 02:58:25;;;;;;;12.52;6.93;;;16.20;99.90;;;16.52;72.20;101522.31;5112490;28;20419;-58
2022/06/21 03:00:56;;;;;;;12.32;7.43;;;16.10;99.90;;;16.52;72.42;101535.66;5112523;28;20044;-58
2022/06/21 03:03:28;;;;;;;16.95;7.93;;;16.10;99.90;;;16.53;71.62;101542.75;5112676;28;20074;-59
2022/06/21 03:06:01;;;;;;;16.17;7.05;;;16.20;99.90;;;16.53;71.37;101549.91;5112632;28;20043;-58
2022/06/21 03:08:32;;;;;;;11.63;6.90;;;16.20;99.90;;;16.36;71.51;101542.13;5112730;28;20040;-58
2022/06/21 03:11:00;;;;;;;;;;;16.10;99.90;;;16.25;70.72;101557.47;5112524;28;20040;-58
2022/06/21 03:13:33;;;;;;;11.95;7.65;;;16.00;99.90;;;16.05;69.74;101555.09;5112077;28;19923;-58
2022/06/21 03:16:08;;;;;;;10.30;7.22;;;15.80;99.90;;;15.86;68.97;101542.97;5112405;28;20048;-59
2022/06/21 03:18:41;;;;;;;7.82;7.00;;;15.60;99.90;;;15.77;69.25;101535.13;5112246;28;20052;-58
2022/06/21 03:21:14;;;;;;;12.13;8.23;;;15.40;99.90;;;15.62;70.66;101519.31;5116816;28;20043;-59
2022/06/21 03:23:45;;;;;;;8.70;7.20;;;15.20;99.90;;;15.57;71.03;101529.16;5116448;28;20040;-59
2022/06/21 03:26:14;;;;;;;9.25;7.53;;;15.20;99.90;;;15.43;71.57;101524.94;5116769;28;20048;-59
2022/06/21 03:28:45;;;;;;;10.25;8.05;;;15.00;99.90;;;15.31;72.37;101520.63;5116383;28;20447;-59
2022/06/21 03:31:22;;;;;;;12.80;8.35;;;14.90;99.90;;;15.42;72.70;101521.41;5116622;28;20044;-58
2022/06/21 03:33:54;;;;;;;12.15;8.30;;;14.90;99.90;;;15.49;72.93;101517.72;5116857;28;20131;-58
2022/06/21 03:36:25;;;;;;;18.15;8.95;;;15.00;99.90;;;15.47;72.76;101511.53;5116327;28;20048;-58
2022/06/21 03:39:00;;;;;;;19.25;8.85;;;15.00;99.90;;;15.57;73.07;101509.63;5115864;28;20100;-60
2022/06/21 03:41:43;;;;;;;16.10;8.15;;;15.10;99.90;;;15.72;73.23;101491.59;5115918;28;20047;-59
2022/06/21 03:44:24;;;;;;;15.30;8.38;;;15.20;99.90;;;15.71;73.18;101479.19;5115625;28;20047;-59
2022/06/21 03:47:01;;;;;;;15.30;8.13;;;15.30;99.90;;;15.83;73.13;101473.63;5115668;28;20043;-58
2022/06/21 03:49:35;;;;;;;16.40;8.25;;;15.40;99.90;;;15.90;73.48;101480.66;5115660;28;20407;-59
2022/06/21 03:52:11;;;;;;;21.00;8.75;;;15.50;99.90;;;15.93;73.32;101477.06;5115741;28;20047;-59
2022/06/21 03:54:44;;;;;;;17.13;8.38;;;15.60;99.90;;;16.00;73.68;101476.91;5115815;28;20101;-59
2022/06/21 03:57:19;;;;;;;14.15;8.15;;;15.60;99.90;;;16.10;73.44;101472.31;5115599;28;20456;-58
2022/06/21 03:59:54;;;;;;;14.18;8.30;;;15.70;99.90;;;16.03;73.22;101465.28;5115484;28;20082;-59
2022/06/21 04:02:32;;;;;;;13.43;7.75;;;15.70;99.90;;;16.17;73.23;101481.97;5115525;28;20135;-59
2022/06/21 04:05:07;;;;;;;14.70;8.80;;;15.70;99.90;;;15.35;73.81;101368.59;5115293;28;20096;-58
2022/06/21 04:07:41;;;;;;;15.65;8.23;;;15.60;99.90;;;15.87;75.02;101479.81;5115395;28;20071;-59
2022/06/21 04:10:20;;;;;;;17.13;8.55;;;15.40;99.90;;;15.57;75.13;101483.84;5115807;28;20043;-59
2022/06/21 04:12:54;;;;;;;14.68;8.95;;;15.30;99.90;;;15.18;75.77;101476.38;5115186;28;20071;-59
2022/06/21 04:15:30;;;;;;;14.27;8.65;;;14.90;99.90;;;15.00;77.01;101477.47;5115212;28;20054;-59
2022/06/21 04:18:06;;;;;;;15.75;9.30;;;14.50;99.90;;;15.33;76.79;101476.16;5114755;28;20047;-58
2022/06/21 04:20:40;;;;;;;17.63;10.43;;;14.80;99.90;;;15.27;77.44;101474.44;5114127;28;20063;-58
2022/06/21 04:23:15;;;;;;;18.13;10.32;;;14.80;99.90;;;15.25;77.85;101467.41;5114042;28;20481;-58
2022/06/21 04:25:50;;;;;;;19.48;10.73;;;14.80;99.90;;;15.47;77.81;101474.19;5114287;28;20040;-58
2022/06/21 04:28:23;;;;;;;20.35;9.98;;;15.00;99.90;;;14.74;77.31;101354.44;5113765;28;20108;-58
2022/06/21 04:30:59;;;;;;;14.77;9.77;;;15.00;99.90;;;15.39;76.77;101502.72;5095368;28;20117;-58
2022/06/21 04:33:35;;;;;;;15.85;9.00;;;15.00;99.90;;;15.49;76.72;101488.41;5114233;28;20378;-58
2022/06/21 04:36:10;;;;;;;11.60;8.55;;;15.00;99.90;;;15.49;76.37;101482.16;5113776;28;20126;-58
2022/06/21 04:38:46;;;;;;;15.40;9.77;;;15.10;99.90;;;15.38;76.40;101477.88;5113822;28;20078;-58
2022/06/21 04:41:23;;;;;;;14.13;9.65;;;15.00;99.90;;;15.14;77.35;101479.97;5113740;28;20437;-58
2022/06/21 04:43:59;;;;;;;14.35;10.13;;;14.70;99.90;;;15.16;78.29;101478.16;5113577;28;20040;-58
2022/06/21 04:46:36;;;;;;;18.90;10.20;;;14.70;99.90;;;15.36;78.84;101481.44;5113738;28;20445;-58
2022/06/21 04:49:16;;;;;;;14.02;10.13;;;14.80;99.90;;;15.51;78.95;101475.91;5113998;28;20043;-58
2022/06/21 04:51:50;;;;;;;13.95;10.15;;;15.00;99.90;;;15.61;77.99;101474.00;5113972;28;20043;-58
2022/06/21 04:54:25;;;;;;;11.65;9.18;;;15.20;99.90;;;15.68;77.67;101473.88;5113706;28;20052;-58
2022/06/21 04:57:03;;;;;;;14.98;10.35;;;15.30;99.90;;;16.00;77.53;101478.69;5113943;28;20051;-58
2022/06/21 04:59:35;;;;;;;13.40;10.02;;;15.50;99.90;;;16.04;77.21;101481.31;5114206;28;20124;-58
2022/06/21 05:02:06;;;;;;;17.08;11.85;;;15.60;99.90;;;16.08;76.75;101483.03;5113608;28;20044;-58
2022/06/21 05:04:40;;;;;;;14.70;10.88;;;15.70;99.90;;;16.36;76.59;101491.41;5113791;28;20036;-59
2022/06/21 05:07:16;;;;;;;19.35;10.85;;;15.90;99.90;;;16.34;76.59;101479.84;5114018;28;20160;-58
2022/06/21 05:09:46;;;;;;;14.70;10.18;;;15.90;99.90;;;16.60;76.65;101487.44;5113994;28;20065;-58
2022/06/21 05:12:21;;;;;;;18.13;10.52;;;16.10;99.90;;;16.36;75.81;101477.16;5113790;28;20047;-58
2022/06/21 05:14:56;;;;;;;22.92;11.02;;;16.00;99.90;;;16.06;76.15;101483.94;5113818;28;20309;-58
2022/06/21 05:17:25;;;;;;;23.55;11.38;;;15.70;99.90;;;16.23;76.65;101496.09;5095721;28;20453;-58
2022/06/21 05:19:59;;;;;;;21.60;11.03;;;15.70;99.90;;;16.17;76.64;101463.28;5071820;28;1205301;-58
2022/06/21 05:22:31;;;;;;;17.40;10.55;;;15.90;99.90;;;16.43;76.63;101498.41;5114553;28;20112;-59
2022/06/21 05:25:01;;;;;;;18.45;11.20;;;15.90;99.90;;;16.74;76.39;101507.63;5114446;28;20048;-58
2022/06/21 05:27:35;;;;;;;21.83;10.77;;;16.20;99.90;;;16.86;75.49;101501.19;5114268;28;20449;-58
2022/06/21 05:30:12;;;;;;;20.17;10.20;;;16.40;99.90;;;16.59;75.47;101483.88;5114267;28;20042;-58
2022/06/21 05:32:49;;;;;;;15.30;9.15;;;16.40;99.90;;;16.90;75.55;101511.75;5114017;28;20100;-59
2022/06/21 05:35:23;;;;;;;21.48;10.40;;;16.50;99.90;;;16.24;75.57;101504.97;5114153;28;20517;-58
2022/06/21 05:37:58;;;;;;;15.25;9.35;;;16.00;99.90;;;16.17;76.67;101504.19;5113941;28;20059;-58
2022/06/21 05:40:34;;;;;;;15.27;9.57;;;15.80;99.90;;;16.22;77.63;101504.09;5114101;28;20067;-58
2022/06/21 05:43:03;;;;;;;20.70;9.90;;;15.80;99.90;;;16.12;78.54;101507.88;5113058;28;20119;-60
2022/06/21 05:45:36;;;;;;;16.55;9.45;;;15.60;99.90;;;16.07;78.02;101499.03;5114047;28;20042;-60
2022/06/21 05:48:12;;;;;;;17.45;9.15;;;15.60;99.90;;;15.77;78.99;101489.75;5113976;28;20101;-60
2022/06/21 05:50:42;;;;;;;18.90;9.90;;;15.40;99.90;;;15.89;79.72;101505.53;5113625;28;20489;-60
2022/06/21 05:53:17;;;;;;;17.13;9.30;;;15.40;99.90;;;16.20;79.08;101527.31;5113575;28;20152;-60
2022/06/21 05:55:48;;;;;;;17.65;10.20;;;15.70;99.90;;;15.99;79.15;101528.50;5113864;28;20092;-60
2022/06/21 05:58:21;;;;;;;24.02;9.75;;;15.60;99.90;;;16.40;80.29;101530.50;5113403;28;20112;-60
2022/06/21 06:00:58;;;;;;;20.15;10.10;;;15.90;99.90;;;16.17;80.04;101506.88;5113942;28;20407;-60
2022/06/21 06:03:32;;;;;;;23.08;10.60;;;15.90;99.90;;;16.42;81.09;101523.34;5113819;28;20119;-60
2022/06/21 06:06:05;;;;;;;19.20;10.00;;;15.90;99.90;;;16.34;81.04;101533.25;5113528;28;20043;-60
2022/06/21 06:08:39;;;;;;;24.38;9.88;;;15.90;99.90;;;16.39;79.75;101541.22;5113206;28;20070;-60
2022/06/21 06:11:14;;;;;;;17.40;8.90;;;16.00;99.90;;;16.28;80.09;101536.94;5113091;28;20051;-60
2022/06/21 06:13:44;;;;;;;20.52;8.40;;;15.90;99.90;;;16.20;80.46;101538.84;5112890;28;20112;-60
2022/06/21 06:16:29;;;;;;;19.27;8.55;;;15.80;99.90;;;16.22;80.42;101537.03;5113158;28;20591;-60
2022/06/21 06:19:05;;;;;;;11.85;7.60;;;15.80;99.90;;;16.64;80.42;101543.47;5112702;28;20048;-60
2022/06/21 06:21:42;;;;;;;15.00;7.93;;;16.10;99.90;;;17.04;78.81;101546.22;5112863;28;20039;-60
2022/06/21 06:24:20;;;;;;;17.70;7.57;;;16.50;99.90;;;16.70;78.54;101551.38;5113525;28;20043;-60
2022/06/21 06:26:57;;;;;;;17.80;7.13;;;16.40;99.90;;;16.77;78.16;101553.00;5112828;28;20442;-60
2022/06/21 06:29:36;;;;;;;16.95;7.50;;;16.30;99.90;;;16.51;79.35;101551.72;5112861;28;20411;-60
2022/06/21 06:32:15;;;;;;;17.63;7.45;;;16.10;99.90;;;16.18;79.46;101540.66;5112960;28;20081;-60
2022/06/21 06:34:49;;;;;;;15.30;7.38;;;15.90;99.90;;;16.31;79.51;101514.66;5112646;28;20043;-59
2022/06/21 06:37:30;;;;;;;14.00;7.07;;;16.00;99.90;;;16.64;76.79;101548.78;5112497;28;20506;-60
2022/06/21 06:39:59;;;;;;;16.15;7.57;;;16.20;99.90;;;16.45;76.24;101549.13;5112884;28;20165;-60
2022/06/21 06:42:31;;;;;;;18.17;7.55;;;16.20;99.90;;;16.82;76.10;101555.59;5112605;28;20035;-60
2022/06/21 06:45:04;;;;;;;14.43;7.38;;;16.40;99.90;;;16.81;76.14;101552.03;5094315;28;20453;-60
2022/06/21 06:47:43;;;;;;;15.95;6.88;;;16.40;99.90;;;16.77;76.18;101577.03;5112569;28;20040;-60
2022/06/21 06:50:18;;;;;;;19.98;7.95;;;16.40;99.90;;;16.85;75.86;101574.22;5112784;28;20101;-60
2022/06/21 06:52:54;;;;;;;15.70;7.80;;;16.60;99.90;;;17.07;75.13;101557.72;5112196;28;20071;-60
2022/06/21 06:55:32;;;;;;;21.50;7.68;;;16.70;99.90;;;17.34;74.20;101566.13;5112328;28;20089;-60
2022/06/21 06:58:25;;;;;;;12.20;6.80;;;16.90;99.90;;;17.29;74.46;101573.34;5112510;28;20050;-60
2022/06/21 07:00:57;;;;;;;14.13;7.68;;;17.10;99.90;;;17.43;72.77;101568.59;5112773;28;20048;-60
2022/06/21 07:03:30;;;;;;;18.33;7.68;;;17.10;99.90;;;17.41;72.30;101565.97;5112291;28;20067;-60
2022/06/21 07:06:03;;;;;;;12.93;6.28;;;17.10;99.90;;;17.28;71.63;101555.53;5112155;28;20043;-60
2022/06/21 07:08:40;;;;;;;13.25;7.10;;;17.00;99.90;;;17.17;73.63;101572.69;5112583;28;20047;-60
2022/06/21 07:11:16;;;;;;;17.00;8.13;;;16.90;99.90;;;17.49;72.92;101571.16;5112155;28;20044;-60
2022/06/21 07:13:45;;;;;;;20.23;7.93;;;17.10;99.90;;;17.49;72.37;101579.19;5112459;28;20120;-60
2022/06/21 07:16:19;;;;;;;12.45;6.15;;;17.10;99.90;;;17.54;71.71;101586.22;5112081;28;20079;-60
2022/06/21 07:18:51;;;;;;;13.63;6.18;;;17.20;99.90;;;17.41;71.07;101575.75;5112795;28;20361;-60
2022/06/21 07:21:22;;;;;;;14.35;6.90;;;17.20;99.90;;;17.50;72.89;101568.47;5112215;28;20105;-60
2022/06/21 07:23:54;;;;;;;10.82;6.57;;;17.10;99.90;;;17.57;71.54;101571.91;5112343;28;20176;-60
2022/06/21 07:26:29;;;;;;;12.13;6.32;;;17.30;99.90;;;17.33;71.91;101565.22;5112060;28;20057;-60
2022/06/21 07:29:02;;;;;;;14.18;6.68;;;17.00;99.90;;;17.32;72.29;101565.28;5112012;28;20108;-60
2022/06/21 07:31:35;;;;;;;13.15;7.25;;;17.00;99.90;;;17.63;71.18;101561.06;5111998;28;20463;-60
2022/06/21 07:34:08;;;;;;;13.40;7.20;;;17.30;99.90;;;17.69;71.89;101558.25;5094029;28;20469;-60
2022/06/21 07:36:44;;;;;;;15.45;6.90;;;17.30;99.90;;;17.48;70.28;101556.03;5094016;28;20117;-60
2022/06/21 07:39:22;;;;;;;10.98;6.40;;;17.30;99.90;;;17.15;71.56;101554.91;5112031;28;20077;-60
2022/06/21 07:41:57;;;;;;;13.85;6.32;;;16.80;99.90;;;17.55;71.33;101544.28;5111999;28;20067;-60
2022/06/21 07:44:31;;;;;;;16.00;5.93;;;17.10;99.90;;;17.76;71.63;101538.44;5112350;28;20070;-60
2022/06/21 07:47:06;;;;;;;18.80;6.57;;;17.30;99.90;;;17.63;70.08;101526.28;5093965;28;20040;-61
2022/06/21 07:49:40;;;;;;;21.98;6.95;;;17.30;99.90;;;17.94;69.21;101530.00;5112521;28;20066;-60
2022/06/21 07:52:16;;;;;;;17.25;5.80;;;17.50;99.90;;;18.07;66.88;101527.88;5112392;28;20078;-60
2022/06/21 07:54:52;;;;;;;10.95;6.25;;;17.70;99.90;;;18.39;67.00;101527.97;5112346;28;20044;-60
2022/06/21 07:57:27;;;;;;;11.23;5.65;;;17.90;99.90;;;18.13;65.49;101453.66;5112041;28;20043;-60
2022/06/21 08:00:01;;;;;;;14.50;6.97;;;18.30;99.90;;;18.30;67.28;101513.00;5112086;28;20063;-60
2022/06/21 08:08:18;;;;;;;13.23;6.03;;;18.00;99.90;;;17.65;67.11;101519.09;5115169;28;20043;-60
2022/06/21 08:10:54;;;;;;;10.80;6.18;;;17.50;99.90;;;17.84;66.77;101501.69;5116241;28;20039;-60
2022/06/21 08:13:29;;;;;;;12.15;5.97;;;17.50;99.90;;;18.11;67.15;101513.50;5116026;28;20044;-60
2022/06/21 08:16:05;;;;;;;7.95;5.20;;;17.60;99.90;;;18.25;64.85;101519.41;5116067;28;20071;-60
2022/06/21 08:18:40;;;;;;;11.57;5.53;;;17.80;99.90;;;18.36;64.56;101507.50;5115495;28;20047;-60
2022/06/21 08:21:21;;;;;;;12.95;6.35;;;18.00;99.90;;;18.23;64.86;101513.19;5115696;28;20050;-60
2022/06/21 08:23:53;;;;;;;;;;;17.90;99.90;;;18.36;64.93;101515.53;5116056;28;20118;-60
2022/06/21 08:26:30;;;;;;;12.05;5.68;;;18.00;99.90;;;18.65;64.93;101506.75;5115264;28;19967;-60
2022/06/21 08:29:07;;;;;;;10.82;5.60;;;18.30;99.90;;;18.36;64.41;101506.59;5115266;28;20048;-60
2022/06/21 08:31:38;;;;;;;9.55;5.35;;;18.00;99.90;;;18.01;63.34;101500.34;5115501;28;20525;-60
2022/06/21 08:34:11;;;;;;;9.82;5.55;;;17.80;99.90;;;18.38;64.36;101500.28;5115357;28;20044;-60
2022/06/21 08:36:46;;;;;;;13.38;5.95;;;18.00;99.90;;;18.84;63.98;101506.19;5096974;28;20447;-60
2022/06/21 08:39:20;;;;;;;10.45;5.25;;;18.30;99.90;;;19.25;62.52;101504.09;5096864;28;20489;-60
2022/06/21 08:42:39;;;;;;;11.73;5.57;;;18.80;99.90;;;19.17;62.91;101511.50;5115216;28;20035;-60
2022/06/21 08:45:51;;;;;;;9.00;5.10;;;18.80;99.90;;;18.58;61.93;101511.38;5080432;28;20071;-60
2022/06/21 08:49:09;;;;;;;9.02;4.80;;;18.50;99.90;;;18.92;62.03;101500.63;5097940;28;20048;-61
2022/06/21 08:52:15;;;;;;;11.07;6.25;;;18.40;99.90;;;19.15;61.65;101513.34;5114688;28;20040;-61
2022/06/21 08:54:56;;;;;;;9.23;5.35;;;18.70;99.90;;;19.36;60.75;101515.44;5114858;28;20051;-60
2022/06/21 08:57:37;;;;;;;8.65;5.32;;;18.90;99.90;;;19.32;59.44;101503.00;5114751;28;20122;-60
2022/06/21 09:00:14;;;;;;;9.23;5.03;;;19.10;99.90;;;19.28;60.04;101504.03;5115099;28;20306;-60
2022/06/21 09:03:08;;;;;;;10.73;5.10;;;18.90;99.90;;;19.72;60.16;101508.94;5114537;28;20101;-60
2022/06/21 09:06:03;;;;;;;9.02;5.32;;;19.20;99.90;;;20.08;60.20;101483.56;5114403;28;20040;-60
2022/06/21 09:08:55;;;;;;;14.02;6.07;;;19.70;99.90;;;19.58;60.63;101503.13;5114734;28;20052;-61
2022/06/21 09:11:34;;;;;;;9.65;5.43;;;19.40;99.90;;;19.78;62.98;101498.00;5114448;28;20043;-60
2022/06/21 09:14:41;;;;;;;9.98;6.30;;;19.30;99.90;;;20.11;60.57;101493.34;5114654;28;20056;-60
2022/06/21 09:17:22;;;;;;;9.60;5.85;;;19.70;99.90;;;20.62;60.66;101497.81;5113240;28;20079;-60
2022/06/21 09:20:13;;;;;;;12.40;6.55;;;20.10;99.90;;;21.05;59.93;101493.59;5114573;28;20059;-60
2022/06/21 09:23:00;;;;;;;8.57;5.38;;;20.60;99.90;;;21.35;57.66;101495.13;5114108;28;20043;-60
2022/06/21 09:25:37;;;;;;;9.60;5.47;;;21.00;99.90;;;20.72;56.82;101487.59;5114131;28;20135;-60
2022/06/21 09:28:11;;;;;;;8.43;5.20;;;20.80;99.90;;;19.96;59.16;101485.75;5114020;28;20162;-60
2022/06/21 09:30:48;;;;;;;15.15;5.43;;;19.80;99.90;;;20.19;58.97;101497.53;5114068;28;20126;-61
2022/06/21 09:33:23;;;;;;;11.32;6.32;;;19.70;99.90;;;20.27;58.36;101492.78;5113760;28;20093;-59
2022/06/21 09:36:02;;;;;;;11.13;5.68;;;19.90;99.90;;;20.39;57.87;101497.75;5114192;28;20338;-60
2022/06/21 09:38:40;;;;;;;11.02;5.50;;;20.00;99.90;;;20.78;59.41;101489.19;5113953;28;20503;-59
2022/06/21 09:41:16;;;;;;;10.13;5.20;;;20.20;99.90;;;20.81;55.30;101486.41;5113639;28;20048;-59
2022/06/21 09:44:08;;;;;;;7.70;4.47;;;20.40;99.90;;;21.07;54.84;101484.53;5113930;28;20054;-59
2022/06/21 09:46:50;;;;;;;11.00;5.22;;;20.60;99.90;;;21.19;55.25;101484.06;5113949;28;20093;-60
2022/06/21 09:49:35;;;;;;;11.80;5.45;;;20.80;99.90;;;21.33;54.20;101472.78;5113394;28;20036;-59
2022/06/21 09:52:16;;;;;;;8.75;4.80;;;21.00;99.90;;;21.69;54.10;101479.38;5095199;28;20047;-59
2022/06/21 09:54:53;;;;;;;10.98;5.90;;;21.30;99.90;;;21.78;52.94;101473.59;5114098;28;20085;-59
2022/06/21 09:57:28;;;;;;;9.38;4.88;;;21.40;99.90;;;21.91;53.35;101477.56;5113472;28;20044;-60
2022/06/21 10:00:08;;;;;;;9.13;4.38;;;21.60;99.90;;;21.95;52.15;101475.66;5113418;28;20147;-59
2022/06/21 10:02:58;;;;;;;8.38;4.85;;;21.70;99.90;;;22.19;51.60;101471.91;5113195;28;20039;-59
2022/06/21 10:05:33;;;;;;;9.35;5.38;;;21.90;99.90;;;21.53;50.90;101470.16;5113641;28;20063;-59
2022/06/21 10:08:19;;;;;;;9.32;4.75;;;21.50;99.90;;;21.64;52.00;101465.19;5094823;28;20518;-59
2022/06/21 10:11:08;;;;;;;9.48;5.10;;;21.30;99.90;;;21.47;52.39;101473.97;5112980;28;20126;-59
2022/06/21 10:13:58;;;;;;;10.40;5.57;;;21.00;99.90;;;21.16;54.04;101459.94;5112901;28;20039;-59
2022/06/21 10:17:07;;;;;;;11.00;5.25;;;20.80;99.90;;;21.02;54.10;101462.28;5113088;28;20051;-59
2022/06/21 10:19:55;;;;;;;9.63;4.82;;;20.60;99.90;;;21.62;53.20;101464.41;5112622;28;20047;-59
2022/06/21 10:22:36;;;;;;;9.68;4.90;;;21.00;99.90;;;21.90;52.87;101458.78;5112915;28;20483;-59
2022/06/21 10:25:38;;;;;;;12.40;5.63;;;21.50;99.90;;;21.38;52.76;101451.91;5112639;28;20035;-59
2022/06/21 10:29:01;;;;;;;12.05;6.40;;;21.10;99.90;;;20.30;55.87;101451.50;5094393;28;20469;-59
2022/06/21 10:31:52;;;;;;;9.35;6.00;;;20.40;99.90;;;20.25;56.18;101443.59;5067316;28;20091;-59
2022/06/21 10:35:06;;;;;;;12.07;5.90;;;19.90;99.90;;;20.02;58.04;101439.91;5094588;28;20070;-59
2022/06/21 10:37:52;;;;;;;7.38;5.05;;;19.60;99.90;;;20.91;57.20;101440.25;5112386;28;20458;-60
2022/06/21 10:41:14;;;;;;;9.07;5.00;;;20.30;99.90;;;21.54;56.51;101442.31;5112716;28;20489;-61
2022/06/21 10:44:12;;;;;;;9.23;4.57;;;20.90;99.90;;;22.08;54.45;101445.44;5093403;28;20059;-60
2022/06/21 10:46:45;;;;;;;10.88;4.88;;;21.60;99.90;;;22.44;52.70;101446.53;5112564;28;20047;-59
2022/06/21 10:49:52;;;;;;;11.98;4.65;;;22.10;99.90;;;22.63;49.88;101449.31;5112459;28;20441;-60
2022/06/21 10:53:04;;;;;;;6.32;4.45;;;22.40;99.90;;;22.72;48.31;101431.84;5112444;28;20040;-59
2022/06/21 10:57:09;;;;;;;8.73;4.75;;;22.50;99.90;;;22.56;47.77;101388.47;5112711;28;20052;-60